createdAt,value
2022-09-28T00:01:21.891Z,84.07
2022-09-28T00:03:52.220Z,84.45
2022-09-28T00:06:24.997Z,84.81
2022-09-28T00:08:54.052Z,84.38
2022-09-28T00:11:24.028Z,83.74
2022-09-28T00:13:56.626Z,84.88
2022-09-28T00:16:28.777Z,85.10
2022-09-28T00:18:57.086Z,85.47
2022-09-28T00:21:31.109Z,85.39
2022-09-28T00:24:13.096Z,85.51
2022-09-28T00:26:45.775Z,85.59
2022-09-28T00:29:18.658Z,84.96
2022-09-28T00:31:47.760Z,84.58
2022-09-28T00:34:16.450Z,84.43
2022-09-28T00:36:46.563Z,83.85
2022-09-28T00:39:16.014Z,83.28
2022-09-28T00:41:45.129Z,82.68
2022-09-28T00:44:25.419Z,83.04
2022-09-28T00:46:54.828Z,83.43
2022-09-28T00:49:32.655Z,83.76
2022-09-28T00:52:03.423Z,83.60
2022-09-28T00:54:31.942Z,83.65
2022-09-28T00:57:01.222Z,83.24
2022-09-28T00:59:29.524Z,83.84
2022-09-28T01:01:57.566Z,83.17
2022-09-28T01:04:29.744Z,82.72
2022-09-28T01:07:00.344Z,83.37
2022-09-28T01:09:29.797Z,83.38
2022-09-28T01:11:57.762Z,83.08
2022-09-28T01:14:26.248Z,83.33
2022-09-28T01:17:32.214Z,83.53
2022-09-28T01:20:40.934Z,83.51
2022-09-28T01:23:35.930Z,83.56
2022-09-28T01:26:41.999Z,83.31
2022-09-28T01:29:24.915Z,83.05
2022-09-28T01:32:25.142Z,82.87
2022-09-28T01:34:59.972Z,82.59
2022-09-28T01:37:37.570Z,82.76
2022-09-28T01:40:09.933Z,82.59
2022-09-28T01:42:41.240Z,81.60
2022-09-28T01:45:22.266Z,81.18
2022-09-28T01:47:57.298Z,81.62
2022-09-28T01:50:29.266Z,81.97
2022-09-28T01:53:06.336Z,81.97
2022-09-28T01:55:39.178Z,82.36
2022-09-28T01:58:15.103Z,82.41
2022-09-28T02:00:48.526Z,81.83
2022-09-28T02:03:40.210Z,81.39
2022-09-28T02:06:16.682Z,81.07
2022-09-28T02:08:54.045Z,81.34
2022-09-28T02:11:23.797Z,82.35
2022-09-28T02:14:01.552Z,82.81
2022-09-28T02:16:43.109Z,83.06
2022-09-28T02:19:18.136Z,82.89
2022-09-28T02:22:03.746Z,82.80
2022-09-28T02:24:44.390Z,82.93
2022-09-28T02:27:42.923Z,83.29
2022-09-28T02:30:11.612Z,82.99
2022-09-28T02:32:44.300Z,82.73
2022-09-28T02:35:14.709Z,82.60
2022-09-28T02:37:43.818Z,82.53
2022-09-28T02:40:26.671Z,82.34
2022-09-28T02:43:23.897Z,82.09
2022-09-28T02:46:16.807Z,81.44
2022-09-28T02:49:10.675Z,81.81
2022-09-28T02:51:57.028Z,81.58
2022-09-28T02:54:49.885Z,82.04
2022-09-28T02:57:51.742Z,82.10
2022-09-28T03:00:24.175Z,82.33
2022-09-28T03:02:57.925Z,82.32
2022-09-28T03:05:38.595Z,81.65
2022-09-28T03:08:32.677Z,81.10
2022-09-28T03:11:25.149Z,81.20
2022-09-28T03:13:53.904Z,81.35
2022-09-28T03:16:24.193Z,81.15
2022-09-28T03:18:52.529Z,80.96
2022-09-28T03:21:20.576Z,80.68
2022-09-28T03:23:48.954Z,81.00
2022-09-28T03:26:18.138Z,81.31
2022-09-28T03:28:46.328Z,81.11
2022-09-28T03:31:18.631Z,81.21
2022-09-28T03:33:46.671Z,81.02
2022-09-28T03:36:15.458Z,81.18
2022-09-28T03:38:43.431Z,81.25
2022-09-28T03:41:11.909Z,81.19
2022-09-28T03:43:41.925Z,82.24
2022-09-28T03:46:10.285Z,82.29
2022-09-28T03:48:42.476Z,80.91
2022-09-28T03:51:12.906Z,81.26
2022-09-28T03:53:40.886Z,81.56
2022-09-28T03:56:14.845Z,81.42
2022-09-28T03:58:43.156Z,81.82
2022-09-28T04:01:17.226Z,82.40
2022-09-28T04:03:47.089Z,83.54
2022-09-28T04:06:15.468Z,83.72
2022-09-28T04:08:43.707Z,84.07
2022-09-28T04:11:12.224Z,83.99
2022-09-28T04:13:40.398Z,83.99
2022-09-28T04:16:11.961Z,83.68
2022-09-28T04:18:42.787Z,83.83
2022-09-28T04:21:13.006Z,83.68
2022-09-28T04:23:48.925Z,84.00
2022-09-28T04:26:22.835Z,84.11
2022-09-28T04:29:09.484Z,84.05
2022-09-28T04:31:51.754Z,83.85
2022-09-28T04:34:22.630Z,83.85
2022-09-28T04:36:51.407Z,83.18
2022-09-28T04:39:20.203Z,82.98
2022-09-28T04:41:51.351Z,82.92
2022-09-28T04:44:19.721Z,83.09
2022-09-28T04:46:48.918Z,83.03
2022-09-28T04:49:32.152Z,82.95
2022-09-28T04:52:07.390Z,82.56
2022-09-28T04:54:36.183Z,82.36
2022-09-28T04:57:06.273Z,82.39
2022-09-28T04:59:34.475Z,82.35
2022-09-28T05:02:02.678Z,81.98
2022-09-28T05:04:49.459Z,82.06
2022-09-28T05:07:36.264Z,81.94
2022-09-28T05:10:06.896Z,81.68
2022-09-28T05:12:35.274Z,81.50
2022-09-28T05:15:05.095Z,81.64
2022-09-28T05:17:33.268Z,81.74
2022-09-28T05:20:09.219Z,82.52
2022-09-28T05:22:37.911Z,82.36
2022-09-28T05:25:07.314Z,82.08
2022-09-28T05:27:46.746Z,81.63
2022-09-28T05:30:31.003Z,81.26
2022-09-28T05:33:21.906Z,82.23
2022-09-28T05:36:01.078Z,82.64
2022-09-28T05:38:31.154Z,82.02
2022-09-28T05:41:02.080Z,81.29
2022-09-28T05:43:33.139Z,81.11
2022-09-28T05:46:01.286Z,81.06
2022-09-28T05:48:30.203Z,81.65
2022-09-28T05:51:01.447Z,82.43
2022-09-28T05:53:29.418Z,82.41
2022-09-28T05:55:59.843Z,82.13
2022-09-28T05:58:28.844Z,82.55
2022-09-28T06:00:57.598Z,83.13
2022-09-28T06:03:26.006Z,83.21
2022-09-28T06:05:55.197Z,82.90
2022-09-28T06:08:23.163Z,83.15
2022-09-28T06:11:02.311Z,83.09
2022-09-28T06:13:30.482Z,83.55
2022-09-28T06:15:58.452Z,83.64
2022-09-28T06:18:27.492Z,82.92
2022-09-28T06:21:14.562Z,82.39
2022-09-28T06:23:48.959Z,82.24
2022-09-28T06:26:18.849Z,82.16
2022-09-28T06:28:47.275Z,81.15
2022-09-28T06:31:16.073Z,80.62
2022-09-28T06:33:50.834Z,80.19
2022-09-28T06:36:20.972Z,78.67
2022-09-28T06:38:50.421Z,78.56
2022-09-28T06:41:18.591Z,79.18
2022-09-28T06:43:48.815Z,77.97
2022-09-28T06:46:38.322Z,77.93
2022-09-28T06:49:27.251Z,78.22
2022-09-28T06:52:13.836Z,77.16
2022-09-28T06:55:00.493Z,77.28
2022-09-28T06:57:40.415Z,77.80
2022-09-28T07:00:09.214Z,76.56
2022-09-28T07:02:37.667Z,76.47
2022-09-28T07:05:36.884Z,76.16
2022-09-28T07:08:26.057Z,76.59
2022-09-28T07:11:07.433Z,76.76
2022-09-28T07:14:22.401Z,77.05
2022-09-28T07:17:13.084Z,76.44
2022-09-28T07:19:43.028Z,76.37
2022-09-28T07:22:18.916Z,76.75
2022-09-28T07:24:48.902Z,76.62
2022-09-28T07:27:39.802Z,75.87
2022-09-28T07:30:40.367Z,76.65
2022-09-28T07:33:19.464Z,76.88
2022-09-28T07:35:55.738Z,77.16
2022-09-28T07:38:29.638Z,77.01
2022-09-28T07:41:14.319Z,77.28
2022-09-28T07:43:46.575Z,77.33
2022-09-28T07:46:15.120Z,76.82
2022-09-28T07:48:49.829Z,75.77
2022-09-28T07:51:38.133Z,75.94
2022-09-28T07:54:39.805Z,75.70
2022-09-28T07:57:29.461Z,74.78
2022-09-28T08:00:17.812Z,74.62
2022-09-28T08:02:48.502Z,73.73
2022-09-28T08:05:22.351Z,73.25
2022-09-28T08:07:50.422Z,72.83
2022-09-28T08:10:20.184Z,72.36
2022-09-28T08:13:08.708Z,72.72
2022-09-28T08:15:39.918Z,72.85
2022-09-28T08:18:31.760Z,72.80
2022-09-28T08:21:18.453Z,72.76
2022-09-28T08:23:46.849Z,73.03
2022-09-28T08:26:16.765Z,73.49
2022-09-28T08:28:47.976Z,70.98
2022-09-28T08:31:36.451Z,69.20
2022-09-28T08:34:22.859Z,69.03
2022-09-28T08:37:07.217Z,67.80
2022-09-28T08:39:55.458Z,68.35
2022-09-28T08:42:42.927Z,67.39
2022-09-28T08:45:35.191Z,66.91
2022-09-28T08:49:06.604Z,66.89
2022-09-28T08:52:03.940Z,66.77
2022-09-28T08:55:24.903Z,67.49
2022-09-28T08:57:54.940Z,63.29
2022-09-28T09:00:51.212Z,62.08
2022-09-28T09:03:34.326Z,62.01
2022-09-28T09:07:15.002Z,60.78
2022-09-28T09:10:11.645Z,60.52
2022-09-28T09:13:03.585Z,58.74
2022-09-28T09:15:54.191Z,57.87
2022-09-28T09:18:42.317Z,58.54
2022-09-28T09:21:42.339Z,59.29
2022-09-28T09:24:35.596Z,58.59
2022-09-28T09:27:13.298Z,57.90
2022-09-28T09:30:19.303Z,56.43
2022-09-28T09:32:57.059Z,57.44
2022-09-28T09:35:33.932Z,56.60
2022-09-28T09:39:20.649Z,58.37
2022-09-28T09:42:22.001Z,56.46
2022-09-28T09:45:54.981Z,54.78
2022-09-28T09:48:47.556Z,55.80
2022-09-28T09:51:56.175Z,54.67
2022-09-28T09:54:36.219Z,53.53
2022-09-28T09:57:13.309Z,52.93
2022-09-28T09:59:58.572Z,53.52
2022-09-28T10:02:45.267Z,53.42
2022-09-28T10:05:37.315Z,54.22
2022-09-28T10:08:08.362Z,54.80
2022-09-28T10:10:49.667Z,54.21
2022-09-28T10:13:19.494Z,51.91
2022-09-28T10:15:48.484Z,51.52
2022-09-28T10:18:21.956Z,51.26
2022-09-28T10:21:24.115Z,51.87
2022-09-28T10:24:32.541Z,52.75
2022-09-28T10:27:13.819Z,52.63
2022-09-28T10:29:54.073Z,53.24
2022-09-28T10:32:41.194Z,53.86
2022-09-28T10:35:31.893Z,54.00
2022-09-28T10:38:19.729Z,54.48
2022-09-28T10:40:56.016Z,54.36
2022-09-28T10:44:08.950Z,54.44
2022-09-28T10:47:02.357Z,54.65
2022-09-28T10:49:48.993Z,54.79
2022-09-28T10:52:36.720Z,54.31
2022-09-28T10:55:26.915Z,54.34
2022-09-28T10:57:55.401Z,56.11
2022-09-28T11:00:38.927Z,55.72
2022-09-28T11:03:25.284Z,53.52
2022-09-28T11:05:55.607Z,51.60
2022-09-28T11:08:32.594Z,52.92
2022-09-28T11:11:11.563Z,52.68
2022-09-28T11:13:47.311Z,51.64
2022-09-28T11:16:28.871Z,48.95
2022-09-28T11:18:59.193Z,48.13
2022-09-28T11:21:40.967Z,46.22
2022-09-28T11:24:18.886Z,44.13
2022-09-28T11:26:53.035Z,41.96
2022-09-28T11:29:26.635Z,39.79
2022-09-28T11:32:15.680Z,40.22
2022-09-28T11:35:19.817Z,40.35
2022-09-28T11:38:03.457Z,38.19
2022-09-28T11:41:09.214Z,37.65
2022-09-28T11:44:03.555Z,37.64
2022-09-28T11:46:38.126Z,37.67
2022-09-28T11:49:27.495Z,35.83
2022-09-28T11:52:01.608Z,33.78
2022-09-28T11:54:38.794Z,31.74
2022-09-28T11:57:22.326Z,30.88
2022-09-28T11:59:59.205Z,30.87
2022-09-28T12:02:40.021Z,30.70
2022-09-28T12:05:21.370Z,29.75
2022-09-28T12:07:56.871Z,28.37
2022-09-28T12:11:00.386Z,28.21
2022-09-28T12:13:51.825Z,28.17
2022-09-28T12:19:48.091Z,28.42
2022-09-28T12:22:25.532Z,28.96
2022-09-28T12:24:57.941Z,30.40
2022-09-28T12:27:45.371Z,31.33
2022-09-28T12:30:20.813Z,31.53
2022-09-28T12:33:01.076Z,33.06
2022-09-28T12:35:29.115Z,32.22
2022-09-28T12:38:20.741Z,32.77
2022-09-28T12:41:16.902Z,33.69
2022-09-28T12:44:02.275Z,34.44
2022-09-28T12:46:49.161Z,34.37
2022-09-28T12:50:36.675Z,34.99
2022-09-28T12:55:25.034Z,36.08
2022-09-28T12:57:59.638Z,35.75
2022-09-28T13:00:54.098Z,35.93
2022-09-28T13:03:49.721Z,36.00
2022-09-28T13:06:26.492Z,35.99
2022-09-28T13:09:20.292Z,35.95
2022-09-28T13:11:54.998Z,36.38
2022-09-28T13:15:03.308Z,36.07
2022-09-28T13:17:42.811Z,37.30
2022-09-28T13:20:38.710Z,37.96
2022-09-28T13:23:23.860Z,37.04
2022-09-28T13:26:05.130Z,37.07
2022-09-28T13:28:35.859Z,36.94
2022-09-28T13:31:05.754Z,36.30
2022-09-28T13:33:37.024Z,35.93
2022-09-28T13:36:25.788Z,35.84
2022-09-28T13:38:55.696Z,37.19
2022-09-28T13:41:35.698Z,37.49
2022-09-28T13:44:20.385Z,37.66
2022-09-28T13:47:10.294Z,39.05
2022-09-28T13:50:09.068Z,39.18
2022-09-28T13:53:09.178Z,38.65
2022-09-28T13:56:02.064Z,38.72
2022-09-28T13:58:32.793Z,38.89
2022-09-28T14:01:11.166Z,39.73
2022-09-28T14:04:19.336Z,40.63
2022-09-28T14:07:09.504Z,40.56
2022-09-28T14:09:47.000Z,41.26
2022-09-28T14:12:43.545Z,40.42
2022-09-28T14:15:30.001Z,39.74
2022-09-28T14:18:16.142Z,40.32
2022-09-28T14:20:58.346Z,41.01
2022-09-28T14:24:00.229Z,41.66
2022-09-28T14:26:41.948Z,41.88
2022-09-28T14:29:28.557Z,42.32
2022-09-28T14:31:59.139Z,43.11
2022-09-28T14:34:58.529Z,43.04
2022-09-28T14:37:56.316Z,43.68
2022-09-28T14:40:49.524Z,44.64
2022-09-28T14:43:45.718Z,44.64
2022-09-28T14:46:20.076Z,45.02
2022-09-28T14:48:52.907Z,45.36
2022-09-28T14:51:27.052Z,45.63
2022-09-28T14:54:01.381Z,45.65
2022-09-28T14:56:43.844Z,46.27
2022-09-28T14:59:20.570Z,45.98
2022-09-28T15:02:01.422Z,46.17
2022-09-28T15:04:30.941Z,47.12
2022-09-28T15:06:59.485Z,47.75
2022-09-28T15:09:36.416Z,47.96
2022-09-28T15:12:16.552Z,48.11
2022-09-28T15:14:49.813Z,48.20
2022-09-28T15:17:22.698Z,47.77
2022-09-28T15:19:51.384Z,46.78
2022-09-28T15:22:21.176Z,46.49
2022-09-28T15:25:02.253Z,46.86
2022-09-28T15:27:38.020Z,46.49
2022-09-28T15:30:32.207Z,46.33
2022-09-28T15:33:22.701Z,46.77
2022-09-28T15:36:02.856Z,47.35
2022-09-28T15:38:34.929Z,48.17
2022-09-28T15:41:05.813Z,48.12
2022-09-28T15:43:34.857Z,48.79
2022-09-28T15:46:21.635Z,50.02
2022-09-28T15:49:00.386Z,51.02
2022-09-28T15:51:29.995Z,51.62
2022-09-28T15:54:01.239Z,51.85
2022-09-28T15:56:30.540Z,51.23
2022-09-28T15:59:30.872Z,52.17
2022-09-28T16:02:08.263Z,52.87
2022-09-28T16:04:59.034Z,53.44
2022-09-28T16:07:35.840Z,54.34
2022-09-28T16:10:11.609Z,54.84
2022-09-28T16:12:55.126Z,56.17
2022-09-28T16:15:28.685Z,57.02
2022-09-28T16:18:02.765Z,57.25
2022-09-28T16:20:41.567Z,57.72
2022-09-28T16:23:09.840Z,58.70
2022-09-28T16:25:39.242Z,59.21
2022-09-28T16:28:07.417Z,60.21
2022-09-28T16:30:35.597Z,60.78
2022-09-28T16:33:06.867Z,60.92
2022-09-28T16:35:40.648Z,61.02
2022-09-28T16:38:14.436Z,61.69
2022-09-28T16:40:52.793Z,61.74
2022-09-28T16:43:27.744Z,62.54
2022-09-28T16:46:02.291Z,62.47
2022-09-28T16:48:32.341Z,62.75
2022-09-28T16:51:00.550Z,62.94
2022-09-28T16:53:47.425Z,63.54
2022-09-28T16:56:16.112Z,64.22
2022-09-28T16:58:48.181Z,64.60
2022-09-28T17:01:16.367Z,64.83
2022-09-28T17:03:47.094Z,65.02
2022-09-28T17:06:16.892Z,65.42
2022-09-28T17:08:45.385Z,65.30
2022-09-28T17:11:22.567Z,65.33
2022-09-28T17:13:52.479Z,65.66
2022-09-28T17:16:37.026Z,66.36
2022-09-28T17:19:19.792Z,65.88
2022-09-28T17:21:49.055Z,66.10
2022-09-28T17:24:18.073Z,66.69
2022-09-28T17:26:47.864Z,66.99
2022-09-28T17:29:16.235Z,67.34
2022-09-28T17:31:45.356Z,67.85
2022-09-28T17:34:16.262Z,67.51
2022-09-28T17:36:45.371Z,66.24
2022-09-28T17:39:19.206Z,67.59
2022-09-28T17:41:47.759Z,68.38
2022-09-28T17:44:16.501Z,67.83
2022-09-28T17:46:48.844Z,68.54
2022-09-28T17:49:17.515Z,68.00
2022-09-28T17:51:45.831Z,68.33
2022-09-28T17:54:16.999Z,68.01
2022-09-28T17:56:46.434Z,66.95
2022-09-28T17:59:17.636Z,68.47
2022-09-28T18:01:45.857Z,67.84
2022-09-28T18:04:39.640Z,68.11
2022-09-28T18:07:04.527Z,68.29
2022-09-28T18:09:32.495Z,69.92
2022-09-28T18:12:04.350Z,70.63
2022-09-28T18:14:32.935Z,69.98
2022-09-28T18:17:01.005Z,69.64
2022-09-28T18:19:32.190Z,70.19
2022-09-28T18:22:01.724Z,71.08
2022-09-28T18:24:32.684Z,71.10
2022-09-28T18:27:00.712Z,70.65
2022-09-28T18:29:33.147Z,70.75
2022-09-28T18:32:02.755Z,70.11
2022-09-28T18:34:31.235Z,69.93
2022-09-28T18:36:59.309Z,70.52
2022-09-28T18:39:27.373Z,70.46
2022-09-28T18:41:55.454Z,70.76
2022-09-28T18:44:24.040Z,69.40
2022-09-28T18:46:52.100Z,68.91
2022-09-28T18:49:21.618Z,68.69
2022-09-28T18:51:49.850Z,69.19
2022-09-28T18:54:18.165Z,69.75
2022-09-28T18:56:46.131Z,70.57
2022-09-28T18:59:14.884Z,71.26
2022-09-28T19:01:43.725Z,71.32
2022-09-28T19:04:12.092Z,71.11
2022-09-28T19:06:41.846Z,70.71
2022-09-28T19:09:10.894Z,71.31
2022-09-28T19:11:39.172Z,71.40
2022-09-28T19:14:10.968Z,70.73
2022-09-28T19:16:39.107Z,71.28
2022-09-28T19:19:07.377Z,71.40
2022-09-28T19:21:35.563Z,71.68
2022-09-28T19:24:04.458Z,70.18
2022-09-28T19:26:33.300Z,69.84
2022-09-28T19:29:03.146Z,70.66
2022-09-28T19:31:32.861Z,71.34
2022-09-28T19:34:01.037Z,72.11
2022-09-28T19:36:29.512Z,72.24
2022-09-28T19:39:03.354Z,72.54
2022-09-28T19:41:43.518Z,71.72
2022-09-28T19:44:26.299Z,71.71
2022-09-28T19:47:01.263Z,73.13
2022-09-28T19:49:33.146Z,73.32
2022-09-28T19:52:13.301Z,73.54
2022-09-28T19:54:55.958Z,73.52
2022-09-28T19:57:26.122Z,73.56
2022-09-28T19:59:59.230Z,73.29
2022-09-28T20:02:29.603Z,73.55
2022-09-28T20:04:57.763Z,73.46
2022-09-28T20:07:25.835Z,72.63
2022-09-28T20:09:53.810Z,71.68
2022-09-28T20:12:22.505Z,72.23
2022-09-28T20:14:50.565Z,73.58
2022-09-28T20:17:19.377Z,74.49
2022-09-28T20:19:48.139Z,74.79
2022-09-28T20:22:17.140Z,74.97
2022-09-28T20:24:45.211Z,75.16
2022-09-28T20:27:13.105Z,75.01
2022-09-28T20:29:43.151Z,74.90
2022-09-28T20:32:11.780Z,74.80
2022-09-28T20:34:39.730Z,74.42
2022-09-28T20:37:07.823Z,73.96
2022-09-28T20:39:35.896Z,73.97
2022-09-28T20:42:03.963Z,74.42
2022-09-28T20:44:32.038Z,74.05
2022-09-28T20:47:01.199Z,73.77
2022-09-28T20:49:29.206Z,73.82
2022-09-28T20:51:57.170Z,73.77
2022-09-28T20:54:25.754Z,73.23
2022-09-28T20:56:53.932Z,72.79
2022-09-28T20:59:25.906Z,73.51
2022-09-28T21:01:53.995Z,74.32
2022-09-28T21:04:21.914Z,73.84
2022-09-28T21:06:49.906Z,73.91
2022-09-28T21:09:18.081Z,74.33
2022-09-28T21:11:46.563Z,74.53
2022-09-28T21:14:14.527Z,74.31
2022-09-28T21:16:42.506Z,74.40
2022-09-28T21:19:10.463Z,74.29
2022-09-28T21:21:38.542Z,74.36
2022-09-28T21:24:07.145Z,74.98
2022-09-28T21:26:35.814Z,75.03
2022-09-28T21:29:07.156Z,74.82
2022-09-28T21:31:47.851Z,75.12
2022-09-28T21:34:20.680Z,75.68
2022-09-28T21:36:51.356Z,75.85
2022-09-28T21:39:20.441Z,75.79
2022-09-28T21:41:48.517Z,75.96
2022-09-28T21:44:16.674Z,76.15
2022-09-28T21:46:44.792Z,76.40
2022-09-28T21:49:14.468Z,76.20
2022-09-28T21:51:42.536Z,76.12
2022-09-28T21:54:12.111Z,76.29
2022-09-28T21:56:40.220Z,76.28
2022-09-28T21:59:08.292Z,76.63
2022-09-28T22:01:36.298Z,76.75
2022-09-28T22:04:04.329Z,76.61
2022-09-28T22:06:32.302Z,76.17
2022-09-28T22:09:00.351Z,76.60
2022-09-28T22:11:29.161Z,76.51
2022-09-28T22:13:59.806Z,76.77
2022-09-28T22:16:31.143Z,76.75
2022-09-28T22:18:59.993Z,76.47
2022-09-28T22:21:32.037Z,76.16
2022-09-28T22:24:02.830Z,75.99
2022-09-28T22:26:33.105Z,75.39
2022-09-28T22:29:07.786Z,75.07
2022-09-28T22:31:38.753Z,75.03
2022-09-28T22:34:09.018Z,74.78
2022-09-28T22:36:37.222Z,74.77
2022-09-28T22:39:05.214Z,75.05
2022-09-28T22:41:33.673Z,75.18
2022-09-28T22:44:01.944Z,74.52
2022-09-28T22:46:32.276Z,74.05
2022-09-28T22:49:00.860Z,74.26
2022-09-28T22:51:30.157Z,74.61
2022-09-28T22:53:58.540Z,75.35
2022-09-28T22:56:27.020Z,75.22
2022-09-28T22:58:55.501Z,76.08
2022-09-28T23:01:25.872Z,76.42
2022-09-28T23:03:55.060Z,76.71
2022-09-28T23:06:26.779Z,76.24
2022-09-28T23:08:55.025Z,75.92
2022-09-28T23:11:23.132Z,75.84
2022-09-28T23:13:52.744Z,76.22
2022-09-28T23:16:23.558Z,76.36
2022-09-28T23:18:53.280Z,76.51
2022-09-28T23:21:24.205Z,76.60
2022-09-28T23:24:01.743Z,76.44
2022-09-28T23:26:32.553Z,76.08
2022-09-28T23:29:00.625Z,76.09
2022-09-28T23:31:31.551Z,76.26
2022-09-28T23:34:05.983Z,76.63
2022-09-28T23:36:34.041Z,76.28
2022-09-28T23:39:03.385Z,75.99
2022-09-28T23:41:31.320Z,76.12
2022-09-28T23:43:59.160Z,76.55
2022-09-28T23:46:27.190Z,76.42
2022-09-28T23:48:55.234Z,76.36
2022-09-28T23:51:23.200Z,75.85
2022-09-28T23:53:51.278Z,76.18
2022-09-28T23:56:19.344Z,76.98
2022-09-28T23:58:47.184Z,77.27
